sensor_id;sensor_type;location;lat;lon;timestamp;P1;durP1;ratioP1;P2;durP2;ratioP2
17193;SDS011;8713;48.388;10.928;2023-01-16T07:45:51;3.00;;;1.33;;
17193;SDS011;8713;48.388;10.928;2023-01-16T07:47:03;1.85;;;1.02;;
17193;SDS011;8713;48.388;10.928;2023-01-16T07:48:13;2.75;;;1.30;;
17193;SDS011;8713;48.388;10.928;2023-01-16T07:49:22;3.58;;;1.45;;
17193;SDS011;8713;48.388;10.928;2023-01-16T07:50:32;4.78;;;1.50;;
17193;SDS011;8713;48.388;10.928;2023-01-16T07:51:41;2.20;;;1.15;;
17193;SDS011;8713;48.388;10.928;2023-01-16T07:52:51;3.88;;;1.50;;
17193;SDS011;8713;48.388;10.928;2023-01-16T07:54:00;2.78;;;1.38;;
17193;SDS011;8713;48.388;10.928;2023-01-16T07:55:10;4.53;;;1.30;;
17193;SDS011;8713;48.388;10.928;2023-01-16T07:56:19;4.43;;;1.40;;
17193;SDS011;8713;48.388;10.928;2023-01-16T07:57:29;2.30;;;1.00;;
17193;SDS011;8713;48.388;10.928;2023-01-16T07:58:38;1.85;;;1.08;;
17193;SDS011;8713;48.388;10.928;2023-01-16T07:59:50;1.92;;;1.20;;
17193;SDS011;8713;48.388;10.928;2023-01-16T08:00:59;2.70;;;1.25;;
17193;SDS011;8713;48.388;10.928;2023-01-16T08:02:09;1.67;;;1.10;;
17193;SDS011;8713;48.388;10.928;2023-01-16T08:03:19;3.03;;;1.40;;
17193;SDS011;8713;48.388;10.928;2023-01-16T08:04:28;6.15;;;1.38;;
17193;SDS011;8713;48.388;10.928;2023-01-16T08:05:38;4.60;;;1.20;;
17193;SDS011;8713;48.388;10.928;2023-01-16T08:06:48;3.67;;;1.50;;
17193;SDS011;8713;48.388;10.928;2023-01-16T08:07:57;2.30;;;1.13;;
17193;SDS011;8713;48.388;10.928;2023-01-16T08:09:06;4.55;;;1.52;;
17193;SDS011;8713;48.388;10.928;2023-01-16T08:10:16;3.50;;;1.70;;
17193;SDS011;8713;48.388;10.928;2023-01-16T08:11:25;2.90;;;1.25;;
17193;SDS011;8713;48.388;10.928;2023-01-16T08:12:44;5.53;;;1.77;;
17193;SDS011;8713;48.388;10.928;2023-01-16T08:13:53;3.40;;;1.85;;
17193;SDS011;8713;48.388;10.928;2023-01-16T08:15:03;5.28;;;1.40;;
17193;SDS011;8713;48.388;10.928;2023-01-16T08:16:12;2.65;;;1.38;;
17193;SDS011;8713;48.388;10.928;2023-01-16T08:17:22;2.33;;;1.23;;
17193;SDS011;8713;48.388;10.928;2023-01-16T08:18:32;2.00;;;1.38;;
17193;SDS011;8713;48.388;10.928;2023-01-16T08:19:41;3.25;;;1.60;;
17193;SDS011;8713;48.388;10.928;2023-01-16T08:20:51;3.03;;;2.15;;
17193;SDS011;8713;48.388;10.928;2023-01-16T08:22:00;17.88;;;10.27;;
17193;SDS011;8713;48.388;10.928;2023-01-16T08:23:11;11.10;;;5.13;;
17193;SDS011;8713;48.388;10.928;2023-01-16T08:24:20;4.45;;;3.05;;
17193;SDS011;8713;48.388;10.928;2023-01-16T08:25:30;2.30;;;1.70;;
17193;SDS011;8713;48.388;10.928;2023-01-16T08:26:40;1.83;;;1.30;;
17193;SDS011;8713;48.388;10.928;2023-01-16T08:27:49;2.03;;;1.30;;
17193;SDS011;8713;48.388;10.928;2023-01-16T08:28:59;3.47;;;1.42;;
17193;SDS011;8713;48.388;10.928;2023-01-16T08:30:11;1.10;;;0.80;;
17193;SDS011;8713;48.388;10.928;2023-01-16T08:31:21;0.93;;;0.73;;
17193;SDS011;8713;48.388;10.928;2023-01-16T08:32:30;5.10;;;1.10;;
17193;SDS011;8713;48.388;10.928;2023-01-16T08:33:40;2.90;;;0.80;;
17193;SDS011;8713;48.388;10.928;2023-01-16T08:34:50;0.90;;;0.75;;
17193;SDS011;8713;48.388;10.928;2023-01-16T08:36:00;2.22;;;1.13;;
17193;SDS011;8713;48.388;10.928;2023-01-16T08:37:11;2.35;;;1.60;;
17193;SDS011;8713;48.388;10.928;2023-01-16T08:38:21;2.15;;;1.33;;
17193;SDS011;8713;48.388;10.928;2023-01-16T08:39:30;2.72;;;2.13;;
17193;SDS011;8713;48.388;10.928;2023-01-16T08:40:40;4.57;;;3.17;;
17193;SDS011;8713;48.388;10.928;2023-01-16T08:41:49;4.45;;;1.65;;
17193;SDS011;8713;48.388;10.928;2023-01-16T08:43:17;6.63;;;3.70;;
17193;SDS011;8713;48.388;10.928;2023-01-16T08:44:45;5.43;;;2.40;;
17193;SDS011;8713;48.388;10.928;2023-01-16T08:46:17;8.55;;;2.47;;
17193;SDS011;8713;48.388;10.928;2023-01-16T08:47:48;5.55;;;2.15;;
17193;SDS011;8713;48.388;10.928;2023-01-16T08:49:15;2.38;;;1.67;;
17193;SDS011;8713;48.388;10.928;2023-01-16T08:50:43;3.03;;;2.13;;
17193;SDS011;8713;48.388;10.928;2023-01-16T08:52:13;2.78;;;1.77;;
17193;SDS011;8713;48.388;10.928;2023-01-16T08:53:22;3.67;;;1.80;;
17193;SDS011;8713;48.388;10.928;2023-01-16T08:54:31;4.53;;;1.70;;
17193;SDS011;8713;48.388;10.928;2023-01-16T08:55:41;1.88;;;1.15;;
17193;SDS011;8713;48.388;10.928;2023-01-16T08:56:50;2.13;;;1.35;;
17193;SDS011;8713;48.388;10.928;2023-01-16T08:58:00;0.75;;;0.75;;
17193;SDS011;8713;48.388;10.928;2023-01-16T08:59:10;1.02;;;0.90;;
17193;SDS011;8713;48.388;10.928;2023-01-16T09:00:19;1.20;;;0.80;;
17193;SDS011;8713;48.388;10.928;2023-01-16T09:01:29;1.27;;;1.02;;
17193;SDS011;8713;48.388;10.928;2023-01-16T09:02:39;1.58;;;1.20;;
17193;SDS011;8713;48.388;10.928;2023-01-16T09:03:48;2.15;;;0.90;;
17193;SDS011;8713;48.388;10.928;2023-01-16T09:04:58;2.63;;;1.10;;
17193;SDS011;8713;48.388;10.928;2023-01-16T09:06:07;4.88;;;1.75;;
17193;SDS011;8713;48.388;10.928;2023-01-16T09:07:17;2.55;;;1.60;;
17193;SDS011;8713;48.388;10.928;2023-01-16T09:08:26;1.73;;;0.80;;
17193;SDS011;8713;48.388;10.928;2023-01-16T09:09:36;1.45;;;1.00;;
17193;SDS011;8713;48.388;10.928;2023-01-16T09:10:46;2.63;;;1.55;;
17193;SDS011;8713;48.388;10.928;2023-01-16T09:12:15;22.13;;;12.40;;
17193;SDS011;8713;48.388;10.928;2023-01-16T09:13:43;7.28;;;4.13;;
17193;SDS011;8713;48.388;10.928;2023-01-16T09:14:58;2.05;;;1.30;;
17193;SDS011;8713;48.388;10.928;2023-01-16T09:16:07;3.97;;;1.95;;
17193;SDS011;8713;48.388;10.928;2023-01-16T09:17:16;3.30;;;1.20;;
17193;SDS011;8713;48.388;10.928;2023-01-16T09:18:26;3.42;;;1.30;;
17193;SDS011;8713;48.388;10.928;2023-01-16T09:19:36;1.52;;;0.80;;
17193;SDS011;8713;48.388;10.928;2023-01-16T09:20:45;1.88;;;1.25;;
17193;SDS011;8713;48.388;10.928;2023-01-16T09:21:55;3.28;;;1.73;;
17193;SDS011;8713;48.388;10.928;2023-01-16T09:23:04;2.85;;;1.67;;
17193;SDS011;8713;48.388;10.928;2023-01-16T09:24:14;3.20;;;0.93;;
17193;SDS011;8713;48.388;10.928;2023-01-16T09:25:24;1.70;;;0.88;;
17193;SDS011;8713;48.388;10.928;2023-01-16T09:26:33;1.48;;;0.60;;
17193;SDS011;8713;48.388;10.928;2023-01-16T09:27:43;2.70;;;0.80;;
17193;SDS011;8713;48.388;10.928;2023-01-16T09:28:55;1.95;;;0.63;;
17193;SDS011;8713;48.388;10.928;2023-01-16T09:30:05;1.58;;;0.80;;
17193;SDS011;8713;48.388;10.928;2023-01-16T09:31:15;3.20;;;0.65;;
17193;SDS011;8713;48.388;10.928;2023-01-16T09:32:24;3.63;;;0.50;;
17193;SDS011;8713;48.388;10.928;2023-01-16T09:33:34;0.80;;;0.60;;
17193;SDS011;8713;48.388;10.928;2023-01-16T09:34:44;1.00;;;0.60;;
17193;SDS011;8713;48.388;10.928;2023-01-16T09:35:53;0.93;;;0.70;;
17193;SDS011;8713;48.388;10.928;2023-01-16T09:37:03;1.08;;;0.80;;
17193;SDS011;8713;48.388;10.928;2023-01-16T09:38:13;2.78;;;0.60;;
17193;SDS011;8713;48.388;10.928;2023-01-16T09:39:23;2.45;;;0.70;;
17193;SDS011;8713;48.388;10.928;2023-01-16T09:40:32;0.90;;;0.60;;
17193;SDS011;8713;48.388;10.928;2023-01-16T09:44:02;1.35;;;0.95;;
17193;SDS011;8713;48.388;10.928;2023-01-16T09:45:16;1.95;;;0.93;;
17193;SDS011;8713;48.388;10.928;2023-01-16T09:46:29;2.85;;;0.80;;
17193;SDS011;8713;48.388;10.928;2023-01-16T09:47:39;1.23;;;0.70;;
17193;SDS011;8713;48.388;10.928;2023-01-16T09:48:54;2.85;;;2.08;;
17193;SDS011;8713;48.388;10.928;2023-01-16T09:50:15;2.28;;;1.50;;
17193;SDS011;8713;48.388;10.928;2023-01-16T09:51:37;1.35;;;1.00;;
17193;SDS011;8713;48.388;10.928;2023-01-16T09:52:50;3.07;;;1.00;;
17193;SDS011;8713;48.388;10.928;2023-01-16T09:54:19;0.50;;;0.50;;
17193;SDS011;8713;48.388;10.928;2023-01-16T09:55:50;1.30;;;0.80;;
17193;SDS011;8713;48.388;10.928;2023-01-16T09:57:19;0.85;;;0.60;;
17193;SDS011;8713;48.388;10.928;2023-01-16T09:58:48;1.02;;;0.63;;
17193;SDS011;8713;48.388;10.928;2023-01-16T10:00:28;2.97;;;1.52;;
17193;SDS011;8713;48.388;10.928;2023-01-16T10:01:41;2.13;;;1.30;;
17193;SDS011;8713;48.388;10.928;2023-01-16T10:02:54;2.53;;;1.25;;
17193;SDS011;8713;48.388;10.928;2023-01-16T10:04:09;2.95;;;1.50;;
17193;SDS011;8713;48.388;10.928;2023-01-16T10:05:33;2.60;;;1.38;;
17193;SDS011;8713;48.388;10.928;2023-01-16T10:07:01;1.75;;;1.27;;
17193;SDS011;8713;48.388;10.928;2023-01-16T10:12:29;2.03;;;0.98;;
17193;SDS011;8713;48.388;10.928;2023-01-16T10:14:58;1.73;;;0.73;;
17193;SDS011;8713;48.388;10.928;2023-01-16T10:19:40;1.02;;;0.80;;
17193;SDS011;8713;48.388;10.928;2023-01-16T10:24:55;1.80;;;1.13;;
17193;SDS011;8713;48.388;10.928;2023-01-16T10:25:56;1.67;;;0.80;;
17193;SDS011;8713;48.388;10.928;2023-01-16T10:28:52;0.80;;;0.73;;
17193;SDS011;8713;48.388;10.928;2023-01-16T10:30:21;1.30;;;0.90;;
17193;SDS011;8713;48.388;10.928;2023-01-16T10:31:40;2.10;;;0.80;;
17193;SDS011;8713;48.388;10.928;2023-01-16T10:33:05;2.65;;;0.90;;
17193;SDS011;8713;48.388;10.928;2023-01-16T10:34:36;1.00;;;0.60;;
17193;SDS011;8713;48.388;10.928;2023-01-16T10:36:00;1.30;;;0.63;;
17193;SDS011;8713;48.388;10.928;2023-01-16T10:37:11;1.05;;;0.65;;
17193;SDS011;8713;48.388;10.928;2023-01-16T10:38:21;1.30;;;1.00;;
17193;SDS011;8713;48.388;10.928;2023-01-16T10:39:52;0.93;;;0.80;;
17193;SDS011;8713;48.388;10.928;2023-01-16T10:41:02;3.65;;;0.88;;
17193;SDS011;8713;48.388;10.928;2023-01-16T10:42:32;3.00;;;0.85;;
17193;SDS011;8713;48.388;10.928;2023-01-16T10:44:01;0.88;;;0.70;;
17193;SDS011;8713;48.388;10.928;2023-01-16T10:45:34;0.75;;;0.60;;
17193;SDS011;8713;48.388;10.928;2023-01-16T10:47:07;1.88;;;1.00;;
17193;SDS011;8713;48.388;10.928;2023-01-16T10:48:38;2.20;;;1.67;;
17193;SDS011;8713;48.388;10.928;2023-01-16T10:50:07;2.38;;;1.40;;
17193;SDS011;8713;48.388;10.928;2023-01-16T10:51:17;2.15;;;1.30;;
17193;SDS011;8713;48.388;10.928;2023-01-16T10:52:27;4.38;;;2.13;;
17193;SDS011;8713;48.388;10.928;2023-01-16T10:53:36;2.92;;;1.58;;
17193;SDS011;8713;48.388;10.928;2023-01-16T10:54:46;3.38;;;1.20;;
17193;SDS011;8713;48.388;10.928;2023-01-16T10:55:56;2.88;;;1.20;;
17193;SDS011;8713;48.388;10.928;2023-01-16T10:57:14;2.42;;;1.00;;
17193;SDS011;8713;48.388;10.928;2023-01-16T10:58:32;1.75;;;0.95;;
17193;SDS011;8713;48.388;10.928;2023-01-16T10:59:46;1.60;;;1.10;;
17193;SDS011;8713;48.388;10.928;2023-01-16T11:01:03;2.03;;;1.05;;
17193;SDS011;8713;48.388;10.928;2023-01-16T11:02:21;3.35;;;1.20;;
17193;SDS011;8713;48.388;10.928;2023-01-16T11:04:04;2.47;;;1.30;;
17193;SDS011;8713;48.388;10.928;2023-01-16T11:05:28;1.40;;;1.20;;
17193;SDS011;8713;48.388;10.928;2023-01-16T11:06:43;1.35;;;1.08;;
17193;SDS011;8713;48.388;10.928;2023-01-16T11:07:53;2.17;;;1.00;;
17193;SDS011;8713;48.388;10.928;2023-01-16T11:09:05;2.65;;;1.00;;
17193;SDS011;8713;48.388;10.928;2023-01-16T11:10:22;2.03;;;1.30;;
17193;SDS011;8713;48.388;10.928;2023-01-16T11:11:36;1.75;;;1.13;;
17193;SDS011;8713;48.388;10.928;2023-01-16T11:13:05;1.30;;;0.80;;
17193;SDS011;8713;48.388;10.928;2023-01-16T11:14:48;1.10;;;0.80;;
17193;SDS011;8713;48.388;10.928;2023-01-16T11:16:21;0.90;;;0.80;;
17193;SDS011;8713;48.388;10.928;2023-01-16T11:17:53;1.63;;;0.88;;
17193;SDS011;8713;48.388;10.928;2023-01-16T11:19:23;2.40;;;0.70;;
17193;SDS011;8713;48.388;10.928;2023-01-16T11:20:40;1.15;;;0.80;;
17193;SDS011;8713;48.388;10.928;2023-01-16T11:21:54;1.77;;;0.90;;
17193;SDS011;8713;48.388;10.928;2023-01-16T11:23:18;2.40;;;1.00;;
17193;SDS011;8713;48.388;10.928;2023-01-16T11:24:31;1.70;;;0.90;;
17193;SDS011;8713;48.388;10.928;2023-01-16T11:25:44;1.73;;;1.08;;
17193;SDS011;8713;48.388;10.928;2023-01-16T11:26:55;1.80;;;1.10;;
17193;SDS011;8713;48.388;10.928;2023-01-16T11:28:07;1.90;;;1.10;;
17193;SDS011;8713;48.388;10.928;2023-01-16T11:29:41;3.28;;;1.20;;
17193;SDS011;8713;48.388;10.928;2023-01-16T11:30:53;1.92;;;1.20;;
17193;SDS011;8713;48.388;10.928;2023-01-16T11:32:10;2.35;;;1.10;;
17193;SDS011;8713;48.388;10.928;2023-01-16T11:33:24;3.80;;;1.20;;
17193;SDS011;8713;48.388;10.928;2023-01-16T11:34:42;2.50;;;1.00;;
17193;SDS011;8713;48.388;10.928;2023-01-16T11:35:58;3.35;;;1.20;;
17193;SDS011;8713;48.388;10.928;2023-01-16T11:37:10;3.00;;;1.40;;
17193;SDS011;8713;48.388;10.928;2023-01-16T11:38:23;1.85;;;1.20;;
17193;SDS011;8713;48.388;10.928;2023-01-16T11:39:34;2.28;;;1.40;;
17193;SDS011;8713;48.388;10.928;2023-01-16T11:40:44;3.00;;;1.20;;
17193;SDS011;8713;48.388;10.928;2023-01-16T11:41:56;3.00;;;1.20;;
17193;SDS011;8713;48.388;10.928;2023-01-16T11:43:12;2.88;;;1.30;;
17193;SDS011;8713;48.388;10.928;2023-01-16T11:44:43;2.65;;;1.33;;
17193;SDS011;8713;48.388;10.928;2023-01-16T11:47:42;1.20;;;0.85;;
17193;SDS011;8713;48.388;10.928;2023-01-16T11:49:03;1.83;;;0.90;;
17193;SDS011;8713;48.388;10.928;2023-01-16T11:50:54;1.25;;;0.90;;
17193;SDS011;8713;48.388;10.928;2023-01-16T11:52:09;1.70;;;1.00;;
17193;SDS011;8713;48.388;10.928;2023-01-16T11:53:38;3.30;;;1.10;;
17193;SDS011;8713;48.388;10.928;2023-01-16T11:54:47;3.50;;;1.20;;
17193;SDS011;8713;48.388;10.928;2023-01-16T12:00:53;1.98;;;1.27;;
17193;SDS011;8713;48.388;10.928;2023-01-16T12:03:51;3.30;;;1.45;;
17193;SDS011;8713;48.388;10.928;2023-01-16T12:07:17;1.67;;;1.05;;
17193;SDS011;8713;48.388;10.928;2023-01-16T12:12:38;3.25;;;1.05;;
17193;SDS011;8713;48.388;10.928;2023-01-16T12:17:48;4.10;;;1.80;;
17193;SDS011;8713;48.388;10.928;2023-01-16T12:20:58;1.52;;;0.90;;
17193;SDS011;8713;48.388;10.928;2023-01-16T12:28:41;2.53;;;1.35;;
17193;SDS011;8713;48.388;10.928;2023-01-16T12:30:21;1.25;;;1.10;;
17193;SDS011;8713;48.388;10.928;2023-01-16T12:31:37;1.10;;;1.00;;
17193;SDS011;8713;48.388;10.928;2023-01-16T12:38:12;3.72;;;1.15;;
17193;SDS011;8713;48.388;10.928;2023-01-16T12:42:57;2.88;;;1.30;;
17193;SDS011;8713;48.388;10.928;2023-01-16T12:44:49;1.75;;;1.10;;
17193;SDS011;8713;48.388;10.928;2023-01-16T12:46:21;1.55;;;1.10;;
17193;SDS011;8713;48.388;10.928;2023-01-16T12:47:53;2.53;;;1.40;;
17193;SDS011;8713;48.388;10.928;2023-01-16T12:49:20;3.17;;;1.35;;
17193;SDS011;8713;48.388;10.928;2023-01-16T12:52:43;2.47;;;1.50;;
17193;SDS011;8713;48.388;10.928;2023-01-16T12:54:27;3.08;;;1.27;;
17193;SDS011;8713;48.388;10.928;2023-01-16T12:55:49;3.40;;;1.10;;
17193;SDS011;8713;48.388;10.928;2023-01-16T12:58:52;2.75;;;1.58;;
17193;SDS011;8713;48.388;10.928;2023-01-16T13:00:06;5.38;;;1.85;;
17193;SDS011;8713;48.388;10.928;2023-01-16T13:01:25;8.13;;;2.90;;
17193;SDS011;8713;48.388;10.928;2023-01-16T13:02:40;3.15;;;1.40;;
17193;SDS011;8713;48.388;10.928;2023-01-16T13:03:55;2.05;;;1.10;;
17193;SDS011;8713;48.388;10.928;2023-01-16T13:05:10;3.80;;;0.80;;
17193;SDS011;8713;48.388;10.928;2023-01-16T13:06:45;2.28;;;1.10;;
17193;SDS011;8713;48.388;10.928;2023-01-16T13:09:48;1.73;;;1.10;;
17193;SDS011;8713;48.388;10.928;2023-01-16T13:11:26;3.03;;;1.42;;
17193;SDS011;8713;48.388;10.928;2023-01-16T13:13:09;3.08;;;1.80;;
17193;SDS011;8713;48.388;10.928;2023-01-16T13:14:30;2.95;;;1.58;;
17193;SDS011;8713;48.388;10.928;2023-01-16T13:15:41;1.98;;;1.00;;
17193;SDS011;8713;48.388;10.928;2023-01-16T13:16:57;1.48;;;1.10;;
17193;SDS011;8713;48.388;10.928;2023-01-16T13:19:46;2.38;;;1.05;;
17193;SDS011;8713;48.388;10.928;2023-01-16T13:20:58;1.40;;;0.98;;
17193;SDS011;8713;48.388;10.928;2023-01-16T13:22:21;1.48;;;0.90;;
17193;SDS011;8713;48.388;10.928;2023-01-16T13:23:38;1.88;;;0.90;;
17193;SDS011;8713;48.388;10.928;2023-01-16T13:26:18;3.17;;;1.65;;
17193;SDS011;8713;48.388;10.928;2023-01-16T13:27:31;3.75;;;2.03;;
17193;SDS011;8713;48.388;10.928;2023-01-16T13:28:51;3.38;;;1.83;;
17193;SDS011;8713;48.388;10.928;2023-01-16T13:30:12;3.08;;;1.40;;
17193;SDS011;8713;48.388;10.928;2023-01-16T13:31:34;3.75;;;1.10;;
17193;SDS011;8713;48.388;10.928;2023-01-16T13:32:50;4.47;;;1.92;;
17193;SDS011;8713;48.388;10.928;2023-01-16T13:35:06;4.05;;;2.05;;
17193;SDS011;8713;48.388;10.928;2023-01-16T13:39:28;2.90;;;1.50;;
17193;SDS011;8713;48.388;10.928;2023-01-16T13:42:18;6.15;;;2.00;;
17193;SDS011;8713;48.388;10.928;2023-01-16T13:43:30;2.53;;;1.42;;
17193;SDS011;8713;48.388;10.928;2023-01-16T13:45:02;4.53;;;2.20;;
17193;SDS011;8713;48.388;10.928;2023-01-16T13:46:35;6.68;;;3.45;;
17193;SDS011;8713;48.388;10.928;2023-01-16T13:47:45;5.25;;;2.60;;
17193;SDS011;8713;48.388;10.928;2023-01-16T13:48:56;5.32;;;3.13;;
17193;SDS011;8713;48.388;10.928;2023-01-16T13:50:17;4.22;;;2.67;;
17193;SDS011;8713;48.388;10.928;2023-01-16T13:51:40;2.25;;;1.52;;
17193;SDS011;8713;48.388;10.928;2023-01-16T13:52:53;2.58;;;1.60;;
17193;SDS011;8713;48.388;10.928;2023-01-16T13:54:04;2.60;;;1.63;;
17193;SDS011;8713;48.388;10.928;2023-01-16T13:55:30;3.15;;;1.50;;
17193;SDS011;8713;48.388;10.928;2023-01-16T13:57:31;3.22;;;1.52;;
17193;SDS011;8713;48.388;10.928;2023-01-16T13:58:23;4.88;;;2.08;;
17193;SDS011;8713;48.388;10.928;2023-01-16T13:59:45;5.15;;;2.58;;
17193;SDS011;8713;48.388;10.928;2023-01-16T14:03:01;2.92;;;1.50;;
17193;SDS011;8713;48.388;10.928;2023-01-16T14:04:27;3.88;;;1.70;;
17193;SDS011;8713;48.388;10.928;2023-01-16T14:13:12;1.73;;;1.00;;
17193;SDS011;8713;48.388;10.928;2023-01-16T14:14:34;1.88;;;1.23;;
17193;SDS011;8713;48.388;10.928;2023-01-16T14:22:00;3.47;;;1.20;;
17193;SDS011;8713;48.388;10.928;2023-01-16T14:23:23;2.15;;;1.20;;
17193;SDS011;8713;48.388;10.928;2023-01-16T14:24:54;2.75;;;1.23;;
17193;SDS011;8713;48.388;10.928;2023-01-16T14:26:05;4.05;;;1.50;;
17193;SDS011;8713;48.388;10.928;2023-01-16T14:27:17;1.90;;;1.05;;
17193;SDS011;8713;48.388;10.928;2023-01-16T14:28:28;3.58;;;1.23;;
17193;SDS011;8713;48.388;10.928;2023-01-16T14:29:59;3.92;;;1.30;;
17193;SDS011;8713;48.388;10.928;2023-01-16T14:31:18;1.80;;;1.13;;
17193;SDS011;8713;48.388;10.928;2023-01-16T14:32:33;5.68;;;1.38;;
17193;SDS011;8713;48.388;10.928;2023-01-16T14:33:45;2.63;;;1.38;;
17193;SDS011;8713;48.388;10.928;2023-01-16T14:34:57;3.00;;;1.67;;
17193;SDS011;8713;48.388;10.928;2023-01-16T14:36:09;3.78;;;1.42;;
17193;SDS011;8713;48.388;10.928;2023-01-16T14:38:51;3.92;;;1.60;;
17193;SDS011;8713;48.388;10.928;2023-01-16T14:41:30;3.03;;;1.60;;
17193;SDS011;8713;48.388;10.928;2023-01-16T14:42:59;2.78;;;1.38;;
17193;SDS011;8713;48.388;10.928;2023-01-16T14:44:29;3.55;;;1.42;;
17193;SDS011;8713;48.388;10.928;2023-01-16T14:47:53;1.40;;;1.10;;
17193;SDS011;8713;48.388;10.928;2023-01-16T14:49:40;1.95;;;1.00;;
17193;SDS011;8713;48.388;10.928;2023-01-16T14:51:27;2.28;;;1.45;;
17193;SDS011;8713;48.388;10.928;2023-01-16T14:54:33;2.47;;;1.30;;
17193;SDS011;8713;48.388;10.928;2023-01-16T14:56:21;2.83;;;1.30;;
17193;SDS011;8713;48.388;10.928;2023-01-16T14:57:41;1.90;;;1.30;;
17193;SDS011;8713;48.388;10.928;2023-01-16T14:58:56;1.80;;;1.20;;
17193;SDS011;8713;48.388;10.928;2023-01-16T15:00:14;4.03;;;1.60;;
17193;SDS011;8713;48.388;10.928;2023-01-16T15:01:28;2.42;;;1.30;;
17193;SDS011;8713;48.388;10.928;2023-01-16T15:03:04;2.67;;;1.50;;
17193;SDS011;8713;48.388;10.928;2023-01-16T15:04:23;2.78;;;1.30;;
17193;SDS011;8713;48.388;10.928;2023-01-16T15:05:46;3.50;;;1.70;;
17193;SDS011;8713;48.388;10.928;2023-01-16T15:07:02;4.85;;;1.90;;
17193;SDS011;8713;48.388;10.928;2023-01-16T15:08:11;3.15;;;1.90;;
17193;SDS011;8713;48.388;10.928;2023-01-16T15:09:22;3.92;;;1.58;;
17193;SDS011;8713;48.388;10.928;2023-01-16T15:10:34;3.15;;;1.45;;
17193;SDS011;8713;48.388;10.928;2023-01-16T15:12:01;2.92;;;1.50;;
17193;SDS011;8713;48.388;10.928;2023-01-16T15:13:53;1.95;;;1.20;;
17193;SDS011;8713;48.388;10.928;2023-01-16T15:15:22;1.88;;;1.20;;
17193;SDS011;8713;48.388;10.928;2023-01-16T15:16:34;2.70;;;1.50;;
17193;SDS011;8713;48.388;10.928;2023-01-16T15:18:03;3.70;;;1.55;;
17193;SDS011;8713;48.388;10.928;2023-01-16T15:19:31;3.60;;;1.20;;
17193;SDS011;8713;48.388;10.928;2023-01-16T15:20:59;2.30;;;1.25;;
17193;SDS011;8713;48.388;10.928;2023-01-16T15:22:39;3.88;;;1.58;;
17193;SDS011;8713;48.388;10.928;2023-01-16T15:23:51;3.40;;;1.60;;
17193;SDS011;8713;48.388;10.928;2023-01-16T15:25:17;4.50;;;1.50;;
17193;SDS011;8713;48.388;10.928;2023-01-16T15:30:57;6.40;;;2.03;;
17193;SDS011;8713;48.388;10.928;2023-01-16T15:32:11;4.07;;;1.98;;
17193;SDS011;8713;48.388;10.928;2023-01-16T15:33:28;4.05;;;2.05;;
17193;SDS011;8713;48.388;10.928;2023-01-16T15:35:03;5.25;;;2.63;;
17193;SDS011;8713;48.388;10.928;2023-01-16T15:37:53;4.80;;;2.60;;
17193;SDS011;8713;48.388;10.928;2023-01-16T15:40:46;12.27;;;5.40;;
17193;SDS011;8713;48.388;10.928;2023-01-16T15:42:00;26.50;;;9.98;;
17193;SDS011;8713;48.388;10.928;2023-01-16T15:43:38;7.72;;;3.10;;
17193;SDS011;8713;48.388;10.928;2023-01-16T15:45:19;17.60;;;12.52;;
17193;SDS011;8713;48.388;10.928;2023-01-16T15:47:01;10.27;;;6.38;;
17193;SDS011;8713;48.388;10.928;2023-01-16T15:51:50;26.63;;;17.17;;
17193;SDS011;8713;48.388;10.928;2023-01-16T15:53:00;25.20;;;17.17;;
17193;SDS011;8713;48.388;10.928;2023-01-16T15:54:11;5.80;;;3.42;;
17193;SDS011;8713;48.388;10.928;2023-01-16T15:55:24;4.57;;;2.72;;
17193;SDS011;8713;48.388;10.928;2023-01-16T15:56:41;4.80;;;2.17;;
17193;SDS011;8713;48.388;10.928;2023-01-16T15:57:53;4.10;;;2.30;;
17193;SDS011;8713;48.388;10.928;2023-01-16T15:59:19;6.40;;;2.47;;
17193;SDS011;8713;48.388;10.928;2023-01-16T16:00:42;3.10;;;2.07;;
17193;SDS011;8713;48.388;10.928;2023-01-16T16:01:52;3.63;;;1.90;;
17193;SDS011;8713;48.388;10.928;2023-01-16T16:03:12;5.82;;;2.10;;
17193;SDS011;8713;48.388;10.928;2023-01-16T16:04:30;4.13;;;2.00;;
17193;SDS011;8713;48.388;10.928;2023-01-16T16:05:40;4.20;;;2.00;;
17193;SDS011;8713;48.388;10.928;2023-01-16T16:06:53;4.20;;;2.83;;
17193;SDS011;8713;48.388;10.928;2023-01-16T16:08:02;3.75;;;2.50;;
17193;SDS011;8713;48.388;10.928;2023-01-16T16:09:18;3.42;;;2.33;;
17193;SDS011;8713;48.388;10.928;2023-01-16T16:10:38;4.18;;;2.88;;
17193;SDS011;8713;48.388;10.928;2023-01-16T16:12:07;5.07;;;2.50;;
17193;SDS011;8713;48.388;10.928;2023-01-16T16:13:17;5.22;;;3.30;;
17193;SDS011;8713;48.388;10.928;2023-01-16T16:16:00;4.10;;;2.72;;
17193;SDS011;8713;48.388;10.928;2023-01-16T16:17:33;5.50;;;1.85;;
17193;SDS011;8713;48.388;10.928;2023-01-16T16:19:03;3.38;;;1.88;;
17193;SDS011;8713;48.388;10.928;2023-01-16T16:21:47;3.35;;;2.28;;
17193;SDS011;8713;48.388;10.928;2023-01-16T16:24:31;6.82;;;3.00;;
17193;SDS011;8713;48.388;10.928;2023-01-16T16:25:56;3.60;;;2.67;;
17193;SDS011;8713;48.388;10.928;2023-01-16T16:27:12;4.40;;;2.80;;
17193;SDS011;8713;48.388;10.928;2023-01-16T16:29:39;6.80;;;4.15;;
17193;SDS011;8713;48.388;10.928;2023-01-16T16:30:55;6.22;;;3.85;;
17193;SDS011;8713;48.388;10.928;2023-01-16T16:32:12;5.07;;;3.25;;
17193;SDS011;8713;48.388;10.928;2023-01-16T16:33:22;4.78;;;2.70;;
17193;SDS011;8713;48.388;10.928;2023-01-16T16:34:32;8.07;;;4.50;;
17193;SDS011;8713;48.388;10.928;2023-01-16T16:35:41;5.85;;;3.47;;
17193;SDS011;8713;48.388;10.928;2023-01-16T16:37:00;5.03;;;3.35;;
17193;SDS011;8713;48.388;10.928;2023-01-16T16:38:18;3.45;;;2.38;;
17193;SDS011;8713;48.388;10.928;2023-01-16T16:40:42;6.03;;;3.88;;
17193;SDS011;8713;48.388;10.928;2023-01-16T16:41:52;6.38;;;3.10;;
17193;SDS011;8713;48.388;10.928;2023-01-16T16:43:41;8.07;;;3.85;;
17193;SDS011;8713;48.388;10.928;2023-01-16T16:45:42;5.65;;;3.17;;
17193;SDS011;8713;48.388;10.928;2023-01-16T16:46:42;9.23;;;4.60;;
17193;SDS011;8713;48.388;10.928;2023-01-16T16:49:35;10.38;;;4.03;;
17193;SDS011;8713;48.388;10.928;2023-01-16T16:50:45;7.32;;;4.35;;
17193;SDS011;8713;48.388;10.928;2023-01-16T16:52:03;5.32;;;3.40;;
17193;SDS011;8713;48.388;10.928;2023-01-16T16:53:43;15.52;;;6.82;;
17193;SDS011;8713;48.388;10.928;2023-01-16T16:54:58;15.48;;;7.43;;
17193;SDS011;8713;48.388;10.928;2023-01-16T16:56:09;14.07;;;6.40;;
17193;SDS011;8713;48.388;10.928;2023-01-16T16:57:20;12.30;;;6.63;;
17193;SDS011;8713;48.388;10.928;2023-01-16T16:58:29;15.90;;;7.85;;
17193;SDS011;8713;48.388;10.928;2023-01-16T16:59:38;20.85;;;9.30;;
17193;SDS011;8713;48.388;10.928;2023-01-16T17:00:48;17.20;;;7.30;;
17193;SDS011;8713;48.388;10.928;2023-01-16T17:01:58;13.93;;;7.25;;
17193;SDS011;8713;48.388;10.928;2023-01-16T17:04:26;6.97;;;3.60;;
17193;SDS011;8713;48.388;10.928;2023-01-16T17:05:35;7.35;;;4.00;;
17193;SDS011;8713;48.388;10.928;2023-01-16T17:06:45;11.40;;;6.50;;
17193;SDS011;8713;48.388;10.928;2023-01-16T17:07:55;14.68;;;6.82;;
17193;SDS011;8713;48.388;10.928;2023-01-16T17:09:08;5.40;;;3.45;;
17193;SDS011;8713;48.388;10.928;2023-01-16T17:10:20;9.15;;;4.70;;
17193;SDS011;8713;48.388;10.928;2023-01-16T17:11:30;7.90;;;4.80;;
17193;SDS011;8713;48.388;10.928;2023-01-16T17:12:39;11.35;;;6.50;;
17193;SDS011;8713;48.388;10.928;2023-01-16T17:13:49;14.48;;;7.97;;
17193;SDS011;8713;48.388;10.928;2023-01-16T17:14:58;6.93;;;3.60;;
17193;SDS011;8713;48.388;10.928;2023-01-16T17:16:13;4.80;;;2.95;;
17193;SDS011;8713;48.388;10.928;2023-01-16T17:17:26;5.93;;;3.05;;
17193;SDS011;8713;48.388;10.928;2023-01-16T17:18:35;5.78;;;3.25;;
17193;SDS011;8713;48.388;10.928;2023-01-16T17:19:45;6.65;;;3.47;;
17193;SDS011;8713;48.388;10.928;2023-01-16T17:20:54;11.48;;;5.78;;